sensor_id;sensor_type;location;lat;lon;timestamp;temperature;humidity
32534;DHT22;18973;48.580;8.912;2023-08-12T00:00:09;21.20;99.90
32534;DHT22;18973;48.580;8.912;2023-08-12T00:02:43;21.20;99.90
32534;DHT22;18973;48.580;8.912;2023-08-12T00:05:09;20.80;99.90
32534;DHT22;18973;48.580;8.912;2023-08-12T00:07:36;20.70;99.90
32534;DHT22;18973;48.580;8.912;2023-08-12T00:10:04;20.70;99.90
32534;DHT22;18973;48.580;8.912;2023-08-12T00:12:31;20.70;99.90
32534;DHT22;18973;48.580;8.912;2023-08-12T00:14:58;20.80;99.90
32534;DHT22;18973;48.580;8.912;2023-08-12T00:17:24;20.90;99.90
32534;DHT22;18973;48.580;8.912;2023-08-12T00:19:49;20.90;99.90
32534;DHT22;18973;48.580;8.912;2023-08-12T00:22:15;20.80;99.90
32534;DHT22;18973;48.580;8.912;2023-08-12T00:24:41;20.90;99.90
32534;DHT22;18973;48.580;8.912;2023-08-12T00:27:07;20.80;99.90
32534;DHT22;18973;48.580;8.912;2023-08-12T00:29:34;20.80;99.90
32534;DHT22;18973;48.580;8.912;2023-08-12T00:32:00;20.70;99.90
32534;DHT22;18973;48.580;8.912;2023-08-12T00:34:26;20.70;99.90
32534;DHT22;18973;48.580;8.912;2023-08-12T00:36:52;20.70;99.90
32534;DHT22;18973;48.580;8.912;2023-08-12T00:39:18;20.80;99.90
32534;DHT22;18973;48.580;8.912;2023-08-12T00:41:43;20.80;99.90
32534;DHT22;18973;48.580;8.912;2023-08-12T00:44:09;20.70;99.90
32534;DHT22;18973;48.580;8.912;2023-08-12T00:46:35;20.60;99.90
32534;DHT22;18973;48.580;8.912;2023-08-12T00:49:02;20.60;99.90
32534;DHT22;18973;48.580;8.912;2023-08-12T00:51:27;20.60;99.90
32534;DHT22;18973;48.580;8.912;2023-08-12T00:53:54;20.50;99.90
32534;DHT22;18973;48.580;8.912;2023-08-12T00:56:23;20.50;99.90
32534;DHT22;18973;48.580;8.912;2023-08-12T00:58:49;20.50;99.90
32534;DHT22;18973;48.580;8.912;2023-08-12T01:01:15;20.40;99.90
32534;DHT22;18973;48.580;8.912;2023-08-12T01:03:43;20.40;99.90
32534;DHT22;18973;48.580;8.912;2023-08-12T01:06:09;20.30;99.90
32534;DHT22;18973;48.580;8.912;2023-08-12T01:08:35;20.40;99.90
32534;DHT22;18973;48.580;8.912;2023-08-12T01:11:20;20.40;99.90
32534;DHT22;18973;48.580;8.912;2023-08-12T01:14:03;20.30;99.90
32534;DHT22;18973;48.580;8.912;2023-08-12T01:16:32;20.30;99.90
32534;DHT22;18973;48.580;8.912;2023-08-12T01:19:00;20.20;99.90
32534;DHT22;18973;48.580;8.912;2023-08-12T01:21:29;20.20;99.90
32534;DHT22;18973;48.580;8.912;2023-08-12T01:23:55;20.30;99.90
32534;DHT22;18973;48.580;8.912;2023-08-12T01:26:21;20.30;99.90
32534;DHT22;18973;48.580;8.912;2023-08-12T01:28:46;20.30;99.90
32534;DHT22;18973;48.580;8.912;2023-08-12T01:31:27;20.20;99.90
32534;DHT22;18973;48.580;8.912;2023-08-12T01:34:20;20.30;99.90
32534;DHT22;18973;48.580;8.912;2023-08-12T01:36:54;20.30;99.90
32534;DHT22;18973;48.580;8.912;2023-08-12T01:39:20;20.30;99.90
32534;DHT22;18973;48.580;8.912;2023-08-12T01:41:47;20.20;99.90
32534;DHT22;18973;48.580;8.912;2023-08-12T01:44:12;20.20;99.90
32534;DHT22;18973;48.580;8.912;2023-08-12T01:46:38;20.20;99.90
32534;DHT22;18973;48.580;8.912;2023-08-12T01:49:04;20.20;99.90
32534;DHT22;18973;48.580;8.912;2023-08-12T01:51:29;20.10;99.90
32534;DHT22;18973;48.580;8.912;2023-08-12T01:53:55;19.90;99.90
32534;DHT22;18973;48.580;8.912;2023-08-12T01:56:21;19.80;99.90
32534;DHT22;18973;48.580;8.912;2023-08-12T01:58:46;19.90;99.90
32534;DHT22;18973;48.580;8.912;2023-08-12T02:01:12;20.00;99.90
32534;DHT22;18973;48.580;8.912;2023-08-12T02:03:38;20.10;99.90
32534;DHT22;18973;48.580;8.912;2023-08-12T02:06:04;20.00;99.90
32534;DHT22;18973;48.580;8.912;2023-08-12T02:08:30;20.10;99.90
32534;DHT22;18973;48.580;8.912;2023-08-12T02:10:55;20.10;99.90
32534;DHT22;18973;48.580;8.912;2023-08-12T02:13:21;20.10;99.90
32534;DHT22;18973;48.580;8.912;2023-08-12T02:15:47;20.30;99.90
32534;DHT22;18973;48.580;8.912;2023-08-12T02:18:12;20.30;99.90
32534;DHT22;18973;48.580;8.912;2023-08-12T02:20:40;20.20;99.90
32534;DHT22;18973;48.580;8.912;2023-08-12T02:23:06;20.20;99.90
32534;DHT22;18973;48.580;8.912;2023-08-12T02:25:32;20.10;99.90
32534;DHT22;18973;48.580;8.912;2023-08-12T02:27:58;20.10;99.90
32534;DHT22;18973;48.580;8.912;2023-08-12T02:30:23;20.10;99.90
32534;DHT22;18973;48.580;8.912;2023-08-12T02:32:50;20.00;99.90
32534;DHT22;18973;48.580;8.912;2023-08-12T02:35:18;20.00;99.90
32534;DHT22;18973;48.580;8.912;2023-08-12T02:37:43;19.90;99.90
32534;DHT22;18973;48.580;8.912;2023-08-12T02:40:09;19.90;99.90
32534;DHT22;18973;48.580;8.912;2023-08-12T02:42:36;19.90;99.90
32534;DHT22;18973;48.580;8.912;2023-08-12T02:45:02;19.80;99.90
32534;DHT22;18973;48.580;8.912;2023-08-12T02:47:28;19.90;99.90
32534;DHT22;18973;48.580;8.912;2023-08-12T02:49:53;19.90;99.90
32534;DHT22;18973;48.580;8.912;2023-08-12T02:52:19;19.80;99.90
32534;DHT22;18973;48.580;8.912;2023-08-12T02:54:45;19.80;99.90
32534;DHT22;18973;48.580;8.912;2023-08-12T02:57:10;19.80;99.90
32534;DHT22;18973;48.580;8.912;2023-08-12T02:59:36;19.80;99.90
32534;DHT22;18973;48.580;8.912;2023-08-12T03:02:02;19.70;99.90
32534;DHT22;18973;48.580;8.912;2023-08-12T03:04:28;19.70;99.90
32534;DHT22;18973;48.580;8.912;2023-08-12T03:06:54;19.70;99.90
32534;DHT22;18973;48.580;8.912;2023-08-12T03:09:20;19.60;99.90
32534;DHT22;18973;48.580;8.912;2023-08-12T03:11:46;19.70;99.90
32534;DHT22;18973;48.580;8.912;2023-08-12T03:14:11;19.70;99.90
32534;DHT22;18973;48.580;8.912;2023-08-12T03:16:37;19.70;99.90
32534;DHT22;18973;48.580;8.912;2023-08-12T03:19:03;19.70;99.90
32534;DHT22;18973;48.580;8.912;2023-08-12T03:21:28;19.70;99.90
32534;DHT22;18973;48.580;8.912;2023-08-12T03:23:54;19.60;99.90
32534;DHT22;18973;48.580;8.912;2023-08-12T03:26:20;19.60;99.90
32534;DHT22;18973;48.580;8.912;2023-08-12T03:28:46;19.60;99.90
32534;DHT22;18973;48.580;8.912;2023-08-12T03:31:11;19.60;99.90
32534;DHT22;18973;48.580;8.912;2023-08-12T03:33:37;19.60;99.90
32534;DHT22;18973;48.580;8.912;2023-08-12T03:36:03;19.60;99.90
32534;DHT22;18973;48.580;8.912;2023-08-12T03:38:29;19.60;99.90
32534;DHT22;18973;48.580;8.912;2023-08-12T03:40:54;19.70;99.90
32534;DHT22;18973;48.580;8.912;2023-08-12T03:43:20;19.70;99.90
32534;DHT22;18973;48.580;8.912;2023-08-12T03:45:46;19.80;99.90
32534;DHT22;18973;48.580;8.912;2023-08-12T03:48:12;19.80;99.90
32534;DHT22;18973;48.580;8.912;2023-08-12T03:50:38;19.80;99.90
32534;DHT22;18973;48.580;8.912;2023-08-12T03:53:05;19.80;99.90
32534;DHT22;18973;48.580;8.912;2023-08-12T03:55:32;19.80;99.90
32534;DHT22;18973;48.580;8.912;2023-08-12T03:57:58;19.90;99.90
32534;DHT22;18973;48.580;8.912;2023-08-12T04:00:25;19.80;99.90
32534;DHT22;18973;48.580;8.912;2023-08-12T04:02:51;19.70;99.90
32534;DHT22;18973;48.580;8.912;2023-08-12T04:05:16;19.70;99.90
32534;DHT22;18973;48.580;8.912;2023-08-12T04:07:42;19.70;99.90
32534;DHT22;18973;48.580;8.912;2023-08-12T04:10:08;19.80;99.90
32534;DHT22;18973;48.580;8.912;2023-08-12T04:12:34;19.80;99.90
32534;DHT22;18973;48.580;8.912;2023-08-12T04:15:00;19.90;99.90
32534;DHT22;18973;48.580;8.912;2023-08-12T04:17:29;19.90;99.90
32534;DHT22;18973;48.580;8.912;2023-08-12T04:19:55;19.90;99.90
32534;DHT22;18973;48.580;8.912;2023-08-12T04:22:20;20.00;99.90
32534;DHT22;18973;48.580;8.912;2023-08-12T04:24:46;19.90;99.90
32534;DHT22;18973;48.580;8.912;2023-08-12T04:27:12;19.90;99.90
32534;DHT22;18973;48.580;8.912;2023-08-12T04:29:37;19.80;99.90
32534;DHT22;18973;48.580;8.912;2023-08-12T04:32:03;19.90;99.90
32534;DHT22;18973;48.580;8.912;2023-08-12T04:34:29;20.20;99.90
32534;DHT22;18973;48.580;8.912;2023-08-12T04:36:55;20.50;99.90
32534;DHT22;18973;48.580;8.912;2023-08-12T04:39:20;20.50;99.90
32534;DHT22;18973;48.580;8.912;2023-08-12T04:41:48;20.40;99.90
32534;DHT22;18973;48.580;8.912;2023-08-12T04:44:13;20.40;99.90
32534;DHT22;18973;48.580;8.912;2023-08-12T04:46:39;20.60;99.90
32534;DHT22;18973;48.580;8.912;2023-08-12T04:49:05;20.80;99.90
32534;DHT22;18973;48.580;8.912;2023-08-12T04:51:31;21.00;99.90
32534;DHT22;18973;48.580;8.912;2023-08-12T04:53:57;20.60;99.90
32534;DHT22;18973;48.580;8.912;2023-08-12T04:56:23;20.40;99.90
32534;DHT22;18973;48.580;8.912;2023-08-12T04:58:49;20.60;99.90
32534;DHT22;18973;48.580;8.912;2023-08-12T05:01:15;20.50;99.90
32534;DHT22;18973;48.580;8.912;2023-08-12T05:03:41;20.70;99.90
32534;DHT22;18973;48.580;8.912;2023-08-12T05:06:06;21.00;99.90
32534;DHT22;18973;48.580;8.912;2023-08-12T05:08:32;21.00;99.90
32534;DHT22;18973;48.580;8.912;2023-08-12T05:10:58;21.00;99.90
32534;DHT22;18973;48.580;8.912;2023-08-12T05:13:24;21.00;99.90
32534;DHT22;18973;48.580;8.912;2023-08-12T05:15:49;20.90;99.90
32534;DHT22;18973;48.580;8.912;2023-08-12T05:18:15;21.10;99.90
32534;DHT22;18973;48.580;8.912;2023-08-12T05:20:42;21.20;99.90
32534;DHT22;18973;48.580;8.912;2023-08-12T05:23:09;21.10;99.90
32534;DHT22;18973;48.580;8.912;2023-08-12T05:25:35;21.10;99.90
32534;DHT22;18973;48.580;8.912;2023-08-12T05:28:00;21.10;99.90
32534;DHT22;18973;48.580;8.912;2023-08-12T05:30:26;21.00;99.90
32534;DHT22;18973;48.580;8.912;2023-08-12T05:32:52;20.30;99.90
32534;DHT22;18973;48.580;8.912;2023-08-12T05:35:17;20.00;99.90
32534;DHT22;18973;48.580;8.912;2023-08-12T05:37:43;20.20;99.90
32534;DHT22;18973;48.580;8.912;2023-08-12T05:40:09;20.40;99.90
32534;DHT22;18973;48.580;8.912;2023-08-12T05:42:36;20.50;99.90
32534;DHT22;18973;48.580;8.912;2023-08-12T05:45:02;20.40;99.90
32534;DHT22;18973;48.580;8.912;2023-08-12T05:47:28;20.30;99.90
32534;DHT22;18973;48.580;8.912;2023-08-12T05:49:54;20.10;99.90
32534;DHT22;18973;48.580;8.912;2023-08-12T05:52:20;20.10;99.90
32534;DHT22;18973;48.580;8.912;2023-08-12T05:54:45;20.20;99.90
32534;DHT22;18973;48.580;8.912;2023-08-12T05:57:11;20.20;99.90
32534;DHT22;18973;48.580;8.912;2023-08-12T05:59:36;20.20;99.90
32534;DHT22;18973;48.580;8.912;2023-08-12T06:02:02;20.30;99.90
32534;DHT22;18973;48.580;8.912;2023-08-12T06:04:29;20.30;99.90
32534;DHT22;18973;48.580;8.912;2023-08-12T06:06:54;20.30;99.90
32534;DHT22;18973;48.580;8.912;2023-08-12T06:09:21;20.30;99.90
32534;DHT22;18973;48.580;8.912;2023-08-12T06:11:47;20.40;99.90
32534;DHT22;18973;48.580;8.912;2023-08-12T06:14:12;20.40;99.90
32534;DHT22;18973;48.580;8.912;2023-08-12T06:16:38;20.40;99.90
32534;DHT22;18973;48.580;8.912;2023-08-12T06:19:04;20.60;99.90
32534;DHT22;18973;48.580;8.912;2023-08-12T06:21:29;20.60;99.90
32534;DHT22;18973;48.580;8.912;2023-08-12T06:23:55;20.70;99.90
32534;DHT22;18973;48.580;8.912;2023-08-12T06:26:21;20.70;99.90
32534;DHT22;18973;48.580;8.912;2023-08-12T06:28:47;20.80;99.90
32534;DHT22;18973;48.580;8.912;2023-08-12T06:31:13;20.90;99.90
32534;DHT22;18973;48.580;8.912;2023-08-12T06:33:38;20.90;99.90
32534;DHT22;18973;48.580;8.912;2023-08-12T06:36:05;20.90;99.90
32534;DHT22;18973;48.580;8.912;2023-08-12T06:38:31;20.90;99.90
32534;DHT22;18973;48.580;8.912;2023-08-12T06:40:56;20.90;99.90
32534;DHT22;18973;48.580;8.912;2023-08-12T06:43:22;21.00;99.90
32534;DHT22;18973;48.580;8.912;2023-08-12T06:45:48;21.20;99.90
32534;DHT22;18973;48.580;8.912;2023-08-12T06:48:13;21.20;99.90
32534;DHT22;18973;48.580;8.912;2023-08-12T06:50:39;21.40;99.90
32534;DHT22;18973;48.580;8.912;2023-08-12T06:53:05;21.40;99.90
32534;DHT22;18973;48.580;8.912;2023-08-12T06:55:30;21.40;99.90
32534;DHT22;18973;48.580;8.912;2023-08-12T06:57:56;21.60;99.90
32534;DHT22;18973;48.580;8.912;2023-08-12T07:00:22;21.60;99.90
32534;DHT22;18973;48.580;8.912;2023-08-12T07:02:48;21.80;99.90
32534;DHT22;18973;48.580;8.912;2023-08-12T07:05:13;22.00;99.90
32534;DHT22;18973;48.580;8.912;2023-08-12T07:07:39;22.20;99.90
32534;DHT22;18973;48.580;8.912;2023-08-12T07:10:05;22.20;99.90
32534;DHT22;18973;48.580;8.912;2023-08-12T07:12:32;22.30;99.90
32534;DHT22;18973;48.580;8.912;2023-08-12T07:14:58;22.20;99.90
32534;DHT22;18973;48.580;8.912;2023-08-12T07:17:24;22.30;99.90
32534;DHT22;18973;48.580;8.912;2023-08-12T07:19:49;22.50;99.90
32534;DHT22;18973;48.580;8.912;2023-08-12T07:22:15;22.80;99.90
32534;DHT22;18973;48.580;8.912;2023-08-12T07:24:44;23.10;99.90
32534;DHT22;18973;48.580;8.912;2023-08-12T07:27:10;23.20;99.90
32534;DHT22;18973;48.580;8.912;2023-08-12T07:29:36;23.40;99.90
32534;DHT22;18973;48.580;8.912;2023-08-12T07:32:02;23.50;99.90
32534;DHT22;18973;48.580;8.912;2023-08-12T07:34:27;23.60;99.90
32534;DHT22;18973;48.580;8.912;2023-08-12T07:36:53;23.80;99.90
32534;DHT22;18973;48.580;8.912;2023-08-12T07:39:19;24.10;99.90
32534;DHT22;18973;48.580;8.912;2023-08-12T07:41:44;24.30;99.90
32534;DHT22;18973;48.580;8.912;2023-08-12T07:44:10;24.50;99.90
32534;DHT22;18973;48.580;8.912;2023-08-12T07:46:36;24.60;99.90
32534;DHT22;18973;48.580;8.912;2023-08-12T07:49:01;24.80;99.90
32534;DHT22;18973;48.580;8.912;2023-08-12T07:51:27;25.00;99.90
32534;DHT22;18973;48.580;8.912;2023-08-12T07:53:53;25.20;99.90
32534;DHT22;18973;48.580;8.912;2023-08-12T07:56:19;25.20;99.90
32534;DHT22;18973;48.580;8.912;2023-08-12T07:58:44;25.20;99.90
32534;DHT22;18973;48.580;8.912;2023-08-12T08:01:11;25.10;99.90
32534;DHT22;18973;48.580;8.912;2023-08-12T08:03:37;25.20;99.90
32534;DHT22;18973;48.580;8.912;2023-08-12T08:06:02;25.30;99.90
32534;DHT22;18973;48.580;8.912;2023-08-12T08:08:28;25.30;99.90
32534;DHT22;18973;48.580;8.912;2023-08-12T08:10:54;25.50;99.90
32534;DHT22;18973;48.580;8.912;2023-08-12T08:13:20;25.70;99.90
32534;DHT22;18973;48.580;8.912;2023-08-12T08:15:45;25.90;99.90
32534;DHT22;18973;48.580;8.912;2023-08-12T08:18:11;26.10;99.90
32534;DHT22;18973;48.580;8.912;2023-08-12T08:20:37;26.30;99.90
32534;DHT22;18973;48.580;8.912;2023-08-12T08:23:03;26.30;99.90
32534;DHT22;18973;48.580;8.912;2023-08-12T08:25:29;26.20;99.90
32534;DHT22;18973;48.580;8.912;2023-08-12T08:27:54;26.20;99.90
32534;DHT22;18973;48.580;8.912;2023-08-12T08:30:20;26.10;99.90
32534;DHT22;18973;48.580;8.912;2023-08-12T08:32:48;26.40;99.90
32534;DHT22;18973;48.580;8.912;2023-08-12T08:35:13;26.70;99.90
32534;DHT22;18973;48.580;8.912;2023-08-12T08:37:40;26.70;99.90
32534;DHT22;18973;48.580;8.912;2023-08-12T08:40:07;26.60;99.90
32534;DHT22;18973;48.580;8.912;2023-08-12T08:42:34;26.60;99.90
32534;DHT22;18973;48.580;8.912;2023-08-12T08:45:01;26.80;99.90
32534;DHT22;18973;48.580;8.912;2023-08-12T08:47:30;27.00;99.90
32534;DHT22;18973;48.580;8.912;2023-08-12T08:49:56;27.10;99.90
32534;DHT22;18973;48.580;8.912;2023-08-12T08:52:26;27.30;99.90
32534;DHT22;18973;48.580;8.912;2023-08-12T08:54:53;27.40;99.90
32534;DHT22;18973;48.580;8.912;2023-08-12T08:57:19;27.40;99.90
32534;DHT22;18973;48.580;8.912;2023-08-12T08:59:45;27.40;99.90
32534;DHT22;18973;48.580;8.912;2023-08-12T09:02:17;27.40;99.90
32534;DHT22;18973;48.580;8.912;2023-08-12T09:04:44;27.50;99.90
32534;DHT22;18973;48.580;8.912;2023-08-12T09:07:12;27.40;99.90
32534;DHT22;18973;48.580;8.912;2023-08-12T09:09:42;27.40;99.90
32534;DHT22;18973;48.580;8.912;2023-08-12T09:12:13;27.60;99.90
32534;DHT22;18973;48.580;8.912;2023-08-12T09:14:39;27.90;99.90
32534;DHT22;18973;48.580;8.912;2023-08-12T09:17:05;28.10;99.80
32534;DHT22;18973;48.580;8.912;2023-08-12T09:19:31;28.30;99.90
32534;DHT22;18973;48.580;8.912;2023-08-12T09:21:57;28.40;98.20
32534;DHT22;18973;48.580;8.912;2023-08-12T09:24:27;28.30;98.70
32534;DHT22;18973;48.580;8.912;2023-08-12T09:26:54;28.40;99.80
32534;DHT22;18973;48.580;8.912;2023-08-12T09:29:31;28.50;98.20
32534;DHT22;18973;48.580;8.912;2023-08-12T09:32:14;28.50;98.00
32534;DHT22;18973;48.580;8.912;2023-08-12T09:35:01;28.50;97.80
32534;DHT22;18973;48.580;8.912;2023-08-12T09:37:31;28.50;97.70
32534;DHT22;18973;48.580;8.912;2023-08-12T09:39:57;28.50;98.40
32534;DHT22;18973;48.580;8.912;2023-08-12T09:42:24;28.40;99.70
32534;DHT22;18973;48.580;8.912;2023-08-12T09:44:49;28.30;99.60
32534;DHT22;18973;48.580;8.912;2023-08-12T09:47:15;28.20;99.90
32534;DHT22;18973;48.580;8.912;2023-08-12T09:49:41;28.20;99.90
32534;DHT22;18973;48.580;8.912;2023-08-12T09:52:07;28.20;99.70
32534;DHT22;18973;48.580;8.912;2023-08-12T09:54:34;28.20;99.90
32534;DHT22;18973;48.580;8.912;2023-08-12T09:57:01;28.40;99.90
32534;DHT22;18973;48.580;8.912;2023-08-12T09:59:37;28.40;99.20
32534;DHT22;18973;48.580;8.912;2023-08-12T10:02:08;28.40;98.40
32534;DHT22;18973;48.580;8.912;2023-08-12T10:04:44;28.40;99.60
32534;DHT22;18973;48.580;8.912;2023-08-12T10:07:11;28.40;99.40
32534;DHT22;18973;48.580;8.912;2023-08-12T10:09:43;28.30;98.90
32534;DHT22;18973;48.580;8.912;2023-08-12T10:12:10;28.30;99.60
32534;DHT22;18973;48.580;8.912;2023-08-12T10:14:38;28.30;98.90
32534;DHT22;18973;48.580;8.912;2023-08-12T10:17:04;28.30;99.30
32534;DHT22;18973;48.580;8.912;2023-08-12T10:19:31;28.30;98.90
32534;DHT22;18973;48.580;8.912;2023-08-12T10:21:59;28.30;98.30
32534;DHT22;18973;48.580;8.912;2023-08-12T10:24:27;28.20;98.80
32534;DHT22;18973;48.580;8.912;2023-08-12T10:26:54;28.20;99.00
32534;DHT22;18973;48.580;8.912;2023-08-12T10:29:20;28.30;99.70
32534;DHT22;18973;48.580;8.912;2023-08-12T12:26:03;26.40;99.90
32534;DHT22;18973;48.580;8.912;2023-08-12T12:28:29;25.70;99.90
32534;DHT22;18973;48.580;8.912;2023-08-12T12:30:54;25.50;99.90
32534;DHT22;18973;48.580;8.912;2023-08-12T12:33:20;25.40;99.90
32534;DHT22;18973;48.580;8.912;2023-08-12T12:35:46;25.40;99.90
32534;DHT22;18973;48.580;8.912;2023-08-12T12:38:11;25.40;99.90
32534;DHT22;18973;48.580;8.912;2023-08-12T12:40:37;25.50;99.90
32534;DHT22;18973;48.580;8.912;2023-08-12T12:43:06;25.30;99.90
32534;DHT22;18973;48.580;8.912;2023-08-12T12:45:31;25.10;99.90
32534;DHT22;18973;48.580;8.912;2023-08-12T12:47:57;24.90;99.90
32534;DHT22;18973;48.580;8.912;2023-08-12T12:50:23;24.70;99.90
32534;DHT22;18973;48.580;8.912;2023-08-12T12:52:48;24.60;99.90
32534;DHT22;18973;48.580;8.912;2023-08-12T12:55:14;24.40;99.90
32534;DHT22;18973;48.580;8.912;2023-08-12T12:57:40;24.20;99.90
32534;DHT22;18973;48.580;8.912;2023-08-12T13:00:06;24.00;99.90
32534;DHT22;18973;48.580;8.912;2023-08-12T13:02:35;23.90;99.90
32534;DHT22;18973;48.580;8.912;2023-08-12T13:05:01;23.80;99.90
32534;DHT22;18973;48.580;8.912;2023-08-12T13:07:27;23.70;99.90
32534;DHT22;18973;48.580;8.912;2023-08-12T13:09:52;23.60;99.90
32534;DHT22;18973;48.580;8.912;2023-08-12T13:12:18;23.60;99.90
32534;DHT22;18973;48.580;8.912;2023-08-12T13:14:44;23.60;99.90
32534;DHT22;18973;48.580;8.912;2023-08-12T13:17:09;23.80;99.90
32534;DHT22;18973;48.580;8.912;2023-08-12T13:19:35;23.80;99.90
32534;DHT22;18973;48.580;8.912;2023-08-12T13:22:01;23.80;99.90
32534;DHT22;18973;48.580;8.912;2023-08-12T13:24:27;23.80;99.90
32534;DHT22;18973;48.580;8.912;2023-08-12T13:26:53;23.90;99.90
32534;DHT22;18973;48.580;8.912;2023-08-12T13:29:20;24.00;99.90
32534;DHT22;18973;48.580;8.912;2023-08-12T13:31:45;24.00;99.90
32534;DHT22;18973;48.580;8.912;2023-08-12T13:34:11;24.20;99.90
32534;DHT22;18973;48.580;8.912;2023-08-12T13:36:37;24.60;99.90
32534;DHT22;18973;48.580;8.912;2023-08-12T13:39:03;24.50;99.90
32534;DHT22;18973;48.580;8.912;2023-08-12T13:41:28;24.60;99.90
32534;DHT22;18973;48.580;8.912;2023-08-12T13:43:54;24.40;99.90
32534;DHT22;18973;48.580;8.912;2023-08-12T13:46:20;24.50;99.90
32534;DHT22;18973;48.580;8.912;2023-08-12T13:48:45;24.70;99.90
32534;DHT22;18973;48.580;8.912;2023-08-12T13:51:11;24.70;99.90
32534;DHT22;18973;48.580;8.912;2023-08-12T13:53:37;24.70;99.90
32534;DHT22;18973;48.580;8.912;2023-08-12T13:56:03;24.80;99.90
32534;DHT22;18973;48.580;8.912;2023-08-12T13:58:29;25.00;99.90
32534;DHT22;18973;48.580;8.912;2023-08-12T14:00:55;25.10;99.90
32534;DHT22;18973;48.580;8.912;2023-08-12T14:03:20;25.30;99.90
32534;DHT22;18973;48.580;8.912;2023-08-12T14:05:46;25.40;99.90
32534;DHT22;18973;48.580;8.912;2023-08-12T14:08:12;25.60;99.90
32534;DHT22;18973;48.580;8.912;2023-08-12T14:10:37;25.70;99.90
32534;DHT22;18973;48.580;8.912;2023-08-12T14:13:03;25.70;99.90
32534;DHT22;18973;48.580;8.912;2023-08-12T14:15:29;25.50;99.90
32534;DHT22;18973;48.580;8.912;2023-08-12T14:17:55;25.50;99.90
32534;DHT22;18973;48.580;8.912;2023-08-12T14:20:20;25.60;99.90
32534;DHT22;18973;48.580;8.912;2023-08-12T14:22:46;25.70;99.90
32534;DHT22;18973;48.580;8.912;2023-08-12T14:25:12;25.80;99.90
32534;DHT22;18973;48.580;8.912;2023-08-12T14:27:38;25.90;99.90
32534;DHT22;18973;48.580;8.912;2023-08-12T14:30:04;26.20;99.90
32534;DHT22;18973;48.580;8.912;2023-08-12T14:32:30;26.20;99.90
32534;DHT22;18973;48.580;8.912;2023-08-12T14:34:55;26.30;99.90
32534;DHT22;18973;48.580;8.912;2023-08-12T14:37:21;26.50;99.90
32534;DHT22;18973;48.580;8.912;2023-08-12T14:39:47;26.60;99.90
32534;DHT22;18973;48.580;8.912;2023-08-12T14:42:12;26.80;99.90
32534;DHT22;18973;48.580;8.912;2023-08-12T14:44:38;26.90;99.90
32534;DHT22;18973;48.580;8.912;2023-08-12T14:47:04;26.90;99.90
32534;DHT22;18973;48.580;8.912;2023-08-12T14:49:30;27.10;99.90
32534;DHT22;18973;48.580;8.912;2023-08-12T14:51:56;27.20;99.90
32534;DHT22;18973;48.580;8.912;2023-08-12T14:54:22;27.30;99.90
32534;DHT22;18973;48.580;8.912;2023-08-12T14:56:48;27.40;99.90
32534;DHT22;18973;48.580;8.912;2023-08-12T14:59:13;27.40;99.90
32534;DHT22;18973;48.580;8.912;2023-08-12T15:01:39;27.40;99.90
32534;DHT22;18973;48.580;8.912;2023-08-12T15:04:05;27.40;99.90
32534;DHT22;18973;48.580;8.912;2023-08-12T15:06:31;27.40;99.90
32534;DHT22;18973;48.580;8.912;2023-08-12T15:08:56;27.40;99.90
32534;DHT22;18973;48.580;8.912;2023-08-12T15:11:22;27.20;99.90
32534;DHT22;18973;48.580;8.912;2023-08-12T15:13:49;27.20;99.90
32534;DHT22;18973;48.580;8.912;2023-08-12T15:16:14;27.20;99.90
32534;DHT22;18973;48.580;8.912;2023-08-12T15:18:40;27.30;99.90
32534;DHT22;18973;48.580;8.912;2023-08-12T15:21:08;27.30;99.90
32534;DHT22;18973;48.580;8.912;2023-08-12T15:23:34;27.30;99.90
32534;DHT22;18973;48.580;8.912;2023-08-12T15:26:01;27.30;99.90
32534;DHT22;18973;48.580;8.912;2023-08-12T15:28:30;27.20;99.90
32534;DHT22;18973;48.580;8.912;2023-08-12T15:30:55;27.00;99.90
32534;DHT22;18973;48.580;8.912;2023-08-12T15:33:21;26.90;99.90
32534;DHT22;18973;48.580;8.912;2023-08-12T15:35:47;26.90;99.90
32534;DHT22;18973;48.580;8.912;2023-08-12T15:38:14;26.80;99.90
32534;DHT22;18973;48.580;8.912;2023-08-12T15:40:40;26.90;99.90
32534;DHT22;18973;48.580;8.912;2023-08-12T15:43:06;26.70;99.90
32534;DHT22;18973;48.580;8.912;2023-08-12T15:45:31;26.70;99.90
32534;DHT22;18973;48.580;8.912;2023-08-12T15:47:57;26.60;99.90
32534;DHT22;18973;48.580;8.912;2023-08-12T15:50:23;26.60;99.90
32534;DHT22;18973;48.580;8.912;2023-08-12T15:52:49;26.60;99.90
32534;DHT22;18973;48.580;8.912;2023-08-12T15:55:14;26.50;99.90
32534;DHT22;18973;48.580;8.912;2023-08-12T15:57:40;26.50;99.90
32534;DHT22;18973;48.580;8.912;2023-08-12T16:00:06;26.40;99.90
32534;DHT22;18973;48.580;8.912;2023-08-12T16:02:33;26.40;99.90
32534;DHT22;18973;48.580;8.912;2023-08-12T16:04:59;26.40;99.90
32534;DHT22;18973;48.580;8.912;2023-08-12T16:07:25;26.40;99.90
32534;DHT22;18973;48.580;8.912;2023-08-12T16:09:51;26.30;99.90
32534;DHT22;18973;48.580;8.912;2023-08-12T16:12:16;26.20;99.90
32534;DHT22;18973;48.580;8.912;2023-08-12T16:14:45;26.20;99.90
32534;DHT22;18973;48.580;8.912;2023-08-12T16:17:10;26.20;99.90
32534;DHT22;18973;48.580;8.912;2023-08-12T16:19:36;25.90;99.90
32534;DHT22;18973;48.580;8.912;2023-08-12T16:22:02;25.80;99.90
32534;DHT22;18973;48.580;8.912;2023-08-12T16:24:28;25.70;99.90
32534;DHT22;18973;48.580;8.912;2023-08-12T16:26:54;25.70;99.90
32534;DHT22;18973;48.580;8.912;2023-08-12T16:29:19;25.50;99.90
32534;DHT22;18973;48.580;8.912;2023-08-12T16:31:45;25.10;99.90
32534;DHT22;18973;48.580;8.912;2023-08-12T16:34:11;24.90;99.90
32534;DHT22;18973;48.580;8.912;2023-08-12T16:36:37;24.50;99.90
32534;DHT22;18973;48.580;8.912;2023-08-12T16:39:02;24.20;99.90
32534;DHT22;18973;48.580;8.912;2023-08-12T16:41:28;23.90;99.90
32534;DHT22;18973;48.580;8.912;2023-08-12T16:43:54;23.80;99.90
32534;DHT22;18973;48.580;8.912;2023-08-12T16:46:20;23.60;99.90
32534;DHT22;18973;48.580;8.912;2023-08-12T16:48:48;23.60;99.90
32534;DHT22;18973;48.580;8.912;2023-08-12T16:51:13;23.60;99.90
32534;DHT22;18973;48.580;8.912;2023-08-12T16:53:39;23.60;99.90
32534;DHT22;18973;48.580;8.912;2023-08-12T16:56:05;23.50;99.90
32534;DHT22;18973;48.580;8.912;2023-08-12T16:58:31;23.60;99.90
32534;DHT22;18973;48.580;8.912;2023-08-12T17:00:57;23.50;99.90
32534;DHT22;18973;48.580;8.912;2023-08-12T17:03:23;23.50;99.90
32534;DHT22;18973;48.580;8.912;2023-08-12T17:05:48;23.60;99.90
32534;DHT22;18973;48.580;8.912;2023-08-12T17:08:14;23.70;99.90
32534;DHT22;18973;48.580;8.912;2023-08-12T17:10:40;23.80;99.90
32534;DHT22;18973;48.580;8.912;2023-08-12T17:13:06;23.70;99.90
32534;DHT22;18973;48.580;8.912;2023-08-12T17:15:32;23.40;99.90
32534;DHT22;18973;48.580;8.912;2023-08-12T17:17:58;23.30;99.90